sensor_id;sensor_type;location;lat;lon;timestamp;pressure;altitude;pressure_sealevel;temperature;humidity
44138;BME280;29800;55.942;37.314;2022-09-09T00:01:13;100224.16;;;7.27;70.24
44138;BME280;29800;55.942;37.314;2022-09-09T00:03:49;100224.75;;;7.29;70.60
44138;BME280;29800;55.942;37.314;2022-09-09T00:06:26;100233.31;;;7.32;70.56
44138;BME280;29800;55.942;37.314;2022-09-09T00:09:15;100234.16;;;7.40;70.22
44138;BME280;29800;55.942;37.314;2022-09-09T00:11:53;100225.13;;;7.39;69.59
44138;BME280;29800;55.942;37.314;2022-09-09T00:14:34;100231.63;;;7.38;69.63
44138;BME280;29800;55.942;37.314;2022-09-09T00:17:07;100223.03;;;7.34;69.73
44138;BME280;29800;55.942;37.314;2022-09-09T00:19:59;100229.53;;;7.40;70.43
44138;BME280;29800;55.942;37.314;2022-09-09T00:22:30;100231.69;;;7.31;70.01
44138;BME280;29800;55.942;37.314;2022-09-09T00:25:23;100237.47;;;7.42;69.87
44138;BME280;29800;55.942;37.314;2022-09-09T00:27:54;100241.28;;;7.34;70.09
44138;BME280;29800;55.942;37.314;2022-09-09T00:30:23;100234.78;;;7.35;70.24
44138;BME280;29800;55.942;37.314;2022-09-09T00:33:11;100242.09;;;7.41;69.99
44138;BME280;29800;55.942;37.314;2022-09-09T00:35:49;100251.53;;;7.39;69.74
44138;BME280;29800;55.942;37.314;2022-09-09T00:38:36;100254.47;;;7.37;69.24
44138;BME280;29800;55.942;37.314;2022-09-09T00:44:08;100253.84;;;7.35;69.71
44138;BME280;29800;55.942;37.314;2022-09-09T00:46:56;100257.81;;;7.39;70.14
44138;BME280;29800;55.942;37.314;2022-09-09T00:49:43;100246.91;;;7.39;69.90
44138;BME280;29800;55.942;37.314;2022-09-09T00:52:23;100255.28;;;7.38;70.49
44138;BME280;29800;55.942;37.314;2022-09-09T00:57:41;100256.53;;;7.42;70.14
44138;BME280;29800;55.942;37.314;2022-09-09T01:00:49;100261.13;;;7.48;69.83
44138;BME280;29800;55.942;37.314;2022-09-09T01:03:36;100264.69;;;7.48;69.41
44138;BME280;29800;55.942;37.314;2022-09-09T01:06:32;100260.72;;;7.44;69.05
44138;BME280;29800;55.942;37.314;2022-09-09T01:09:21;100268.28;;;7.42;69.13
44138;BME280;29800;55.942;37.314;2022-09-09T01:19:49;100272.31;;;7.33;69.58
44138;BME280;29800;55.942;37.314;2022-09-09T01:22:26;100271.25;;;7.27;69.55
44138;BME280;29800;55.942;37.314;2022-09-09T01:28:05;100281.53;;;7.32;69.00
44138;BME280;29800;55.942;37.314;2022-09-09T01:30:38;100284.88;;;7.27;68.96
44138;BME280;29800;55.942;37.314;2022-09-09T01:33:14;100278.59;;;7.27;69.70
44138;BME280;29800;55.942;37.314;2022-09-09T01:36:13;100288.00;;;7.31;69.33
44138;BME280;29800;55.942;37.314;2022-09-09T01:38:49;100286.81;;;7.20;69.28
44138;BME280;29800;55.942;37.314;2022-09-09T01:41:17;100294.53;;;7.16;69.42
44138;BME280;29800;55.942;37.314;2022-09-09T01:43:49;100296.44;;;7.16;69.26
44138;BME280;29800;55.942;37.314;2022-09-09T01:46:21;100289.34;;;7.15;69.33
44138;BME280;29800;55.942;37.314;2022-09-09T01:48:51;100292.91;;;7.09;68.76
44138;BME280;29800;55.942;37.314;2022-09-09T01:51:19;100293.34;;;7.06;69.11
44138;BME280;29800;55.942;37.314;2022-09-09T01:53:47;100298.59;;;7.01;69.04
44138;BME280;29800;55.942;37.314;2022-09-09T02:04:43;100307.19;;;6.91;69.03
44138;BME280;29800;55.942;37.314;2022-09-09T02:09:52;100313.47;;;6.85;69.43
44138;BME280;29800;55.942;37.314;2022-09-09T02:12:24;100309.72;;;6.79;69.47
44138;BME280;29800;55.942;37.314;2022-09-09T02:15:11;100314.72;;;6.82;69.29
44138;BME280;29800;55.942;37.314;2022-09-09T02:17:50;100313.50;;;6.71;70.24
44138;BME280;29800;55.942;37.314;2022-09-09T02:20:19;100314.31;;;6.65;69.81
44138;BME280;29800;55.942;37.314;2022-09-09T02:22:55;100317.03;;;6.58;69.50
44138;BME280;29800;55.942;37.314;2022-09-09T02:25:26;100318.72;;;6.59;70.22
44138;BME280;29800;55.942;37.314;2022-09-09T02:27:59;100322.06;;;6.55;70.45
44138;BME280;29800;55.942;37.314;2022-09-09T02:30:28;100326.69;;;6.54;70.33
44138;BME280;29800;55.942;37.314;2022-09-09T02:32:58;100325.22;;;6.52;70.39
44138;BME280;29800;55.942;37.314;2022-09-09T02:35:42;100327.72;;;6.53;70.96
44138;BME280;29800;55.942;37.314;2022-09-09T02:38:12;100322.50;;;6.52;70.16
44138;BME280;29800;55.942;37.314;2022-09-09T02:40:44;100331.06;;;6.49;70.83
44138;BME280;29800;55.942;37.314;2022-09-09T02:43:14;100329.38;;;6.48;70.20
44138;BME280;29800;55.942;37.314;2022-09-09T02:46:22;100329.63;;;6.53;70.69
44138;BME280;29800;55.942;37.314;2022-09-09T02:49:05;100342.56;;;6.51;70.54
44138;BME280;29800;55.942;37.314;2022-09-09T02:52:08;100348.41;;;6.48;70.23
44138;BME280;29800;55.942;37.314;2022-09-09T02:54:38;100337.75;;;6.39;70.38
44138;BME280;29800;55.942;37.314;2022-09-09T02:59:47;100346.75;;;6.33;70.48
44138;BME280;29800;55.942;37.314;2022-09-09T03:02:13;100348.19;;;6.29;70.57
44138;BME280;29800;55.942;37.314;2022-09-09T03:04:41;100355.94;;;6.25;70.59
44138;BME280;29800;55.942;37.314;2022-09-09T03:07:13;100357.19;;;6.23;70.20
44138;BME280;29800;55.942;37.314;2022-09-09T03:09:40;100354.25;;;6.18;69.98
44138;BME280;29800;55.942;37.314;2022-09-09T03:12:07;100355.72;;;6.14;70.68
44138;BME280;29800;55.942;37.314;2022-09-09T03:14:34;100361.56;;;6.11;70.92
44138;BME280;29800;55.942;37.314;2022-09-09T03:17:00;100364.69;;;6.07;70.88
44138;BME280;29800;55.942;37.314;2022-09-09T03:19:32;100369.91;;;6.09;71.08
44138;BME280;29800;55.942;37.314;2022-09-09T03:21:59;100369.28;;;6.07;70.91
44138;BME280;29800;55.942;37.314;2022-09-09T03:24:28;100368.63;;;6.05;70.96
44138;BME280;29800;55.942;37.314;2022-09-09T03:26:54;100371.78;;;6.02;71.19
44138;BME280;29800;55.942;37.314;2022-09-09T03:29:21;100369.91;;;6.02;71.43
44138;BME280;29800;55.942;37.314;2022-09-09T03:31:48;100370.94;;;6.01;71.05
44138;BME280;29800;55.942;37.314;2022-09-09T03:34:16;100374.72;;;6.00;71.19
44138;BME280;29800;55.942;37.314;2022-09-09T03:36:42;100384.50;;;6.01;71.48
44138;BME280;29800;55.942;37.314;2022-09-09T03:39:09;100381.81;;;6.01;71.13
44138;BME280;29800;55.942;37.314;2022-09-09T03:41:36;100382.66;;;6.02;71.70
44138;BME280;29800;55.942;37.314;2022-09-09T03:44:03;100383.28;;;6.04;71.88
44138;BME280;29800;55.942;37.314;2022-09-09T03:46:35;100383.09;;;6.05;71.67
44138;BME280;29800;55.942;37.314;2022-09-09T03:49:01;100380.16;;;6.07;71.73
44138;BME280;29800;55.942;37.314;2022-09-09T03:51:30;100379.31;;;6.06;72.02
44138;BME280;29800;55.942;37.314;2022-09-09T03:53:56;100381.00;;;6.07;72.00
44138;BME280;29800;55.942;37.314;2022-09-09T03:56:25;100384.34;;;6.10;71.84
44138;BME280;29800;55.942;37.314;2022-09-09T03:58:52;100388.13;;;6.22;73.38
44138;BME280;29800;55.942;37.314;2022-09-09T04:01:18;100386.06;;;6.51;75.01
44138;BME280;29800;55.942;37.314;2022-09-09T04:03:44;100386.13;;;6.77;75.56
44138;BME280;29800;55.942;37.314;2022-09-09T04:06:12;100389.84;;;7.10;74.98
44138;BME280;29800;55.942;37.314;2022-09-09T04:08:42;100395.28;;;7.30;72.54
44138;BME280;29800;55.942;37.314;2022-09-09T04:11:08;100391.44;;;7.44;70.63
44138;BME280;29800;55.942;37.314;2022-09-09T04:13:36;100390.78;;;7.55;70.42
44138;BME280;29800;55.942;37.314;2022-09-09T04:16:10;100390.06;;;7.80;71.90
44138;BME280;29800;55.942;37.314;2022-09-09T04:18:37;100396.38;;;7.81;70.58
44138;BME280;29800;55.942;37.314;2022-09-09T04:21:03;100392.91;;;8.05;70.80
44138;BME280;29800;55.942;37.314;2022-09-09T04:23:33;100388.38;;;8.24;69.29
44138;BME280;29800;55.942;37.314;2022-09-09T04:26:01;100391.03;;;8.44;68.88
44138;BME280;29800;55.942;37.314;2022-09-09T04:28:30;100398.09;;;8.52;66.91
44138;BME280;29800;55.942;37.314;2022-09-09T04:30:58;100398.09;;;8.52;66.69
44138;BME280;29800;55.942;37.314;2022-09-09T04:33:30;100395.59;;;8.51;66.90
44138;BME280;29800;55.942;37.314;2022-09-09T04:35:57;100394.28;;;8.60;66.44
44138;BME280;29800;55.942;37.314;2022-09-09T04:38:28;100389.22;;;8.63;65.93
44138;BME280;29800;55.942;37.314;2022-09-09T04:40:55;100394.50;;;8.58;65.82
44138;BME280;29800;55.942;37.314;2022-09-09T04:43:22;100394.00;;;8.43;65.31
44138;BME280;29800;55.942;37.314;2022-09-09T04:45:50;100403.66;;;8.32;66.08
44138;BME280;29800;55.942;37.314;2022-09-09T04:48:20;100404.97;;;8.23;66.75
44138;BME280;29800;55.942;37.314;2022-09-09T04:50:55;100408.53;;;8.23;66.50
44138;BME280;29800;55.942;37.314;2022-09-09T04:53:23;100406.47;;;8.19;66.25
44138;BME280;29800;55.942;37.314;2022-09-09T04:55:49;100412.13;;;8.17;66.63
44138;BME280;29800;55.942;37.314;2022-09-09T04:58:15;100408.38;;;8.18;67.00
44138;BME280;29800;55.942;37.314;2022-09-09T05:00:41;100407.09;;;8.21;67.32
44138;BME280;29800;55.942;37.314;2022-09-09T05:03:08;100417.94;;;8.27;67.81
44138;BME280;29800;55.942;37.314;2022-09-09T05:05:36;100418.56;;;8.29;66.92
44138;BME280;29800;55.942;37.314;2022-09-09T05:08:07;100415.59;;;8.44;66.69
44138;BME280;29800;55.942;37.314;2022-09-09T05:10:37;100417.81;;;8.54;66.63
44138;BME280;29800;55.942;37.314;2022-09-09T05:13:05;100418.44;;;8.56;66.05
44138;BME280;29800;55.942;37.314;2022-09-09T05:15:32;100422.56;;;8.65;66.37
44138;BME280;29800;55.942;37.314;2022-09-09T05:17:59;100421.69;;;8.72;66.53
44138;BME280;29800;55.942;37.314;2022-09-09T05:20:28;100419.50;;;8.80;66.12
44138;BME280;29800;55.942;37.314;2022-09-09T05:22:56;100434.34;;;8.91;65.57
44138;BME280;29800;55.942;37.314;2022-09-09T05:25:25;100424.38;;;9.04;65.26
44138;BME280;29800;55.942;37.314;2022-09-09T05:27:53;100429.56;;;9.12;64.86
44138;BME280;29800;55.942;37.314;2022-09-09T05:30:21;100433.00;;;9.26;64.27
44138;BME280;29800;55.942;37.314;2022-09-09T05:32:49;100433.94;;;9.38;64.35
44138;BME280;29800;55.942;37.314;2022-09-09T05:35:17;100427.44;;;9.57;64.90
44138;BME280;29800;55.942;37.314;2022-09-09T05:37:45;100430.53;;;9.80;64.08
44138;BME280;29800;55.942;37.314;2022-09-09T05:40:12;100432.81;;;10.01;63.81
44138;BME280;29800;55.942;37.314;2022-09-09T05:42:39;100432.31;;;10.23;62.81
44138;BME280;29800;55.942;37.314;2022-09-09T05:45:07;100426.00;;;10.41;62.21
44138;BME280;29800;55.942;37.314;2022-09-09T05:47:35;100429.41;;;10.66;61.14
44138;BME280;29800;55.942;37.314;2022-09-09T05:50:04;100429.22;;;10.92;60.47
44138;BME280;29800;55.942;37.314;2022-09-09T05:52:31;100421.53;;;11.12;59.90
44138;BME280;29800;55.942;37.314;2022-09-09T05:54:58;100431.31;;;11.32;58.89
44138;BME280;29800;55.942;37.314;2022-09-09T05:57:25;100426.28;;;11.52;58.67
44138;BME280;29800;55.942;37.314;2022-09-09T05:59:51;100429.47;;;11.73;57.63
44138;BME280;29800;55.942;37.314;2022-09-09T06:02:17;100429.78;;;11.88;57.09
44138;BME280;29800;55.942;37.314;2022-09-09T06:04:43;100432.69;;;11.93;56.06
44138;BME280;29800;55.942;37.314;2022-09-09T06:07:11;100438.41;;;12.04;56.45
44138;BME280;29800;55.942;37.314;2022-09-09T06:09:37;100445.38;;;12.23;55.82
44138;BME280;29800;55.942;37.314;2022-09-09T06:12:03;100443.84;;;12.44;54.35
44138;BME280;29800;55.942;37.314;2022-09-09T06:14:33;100442.88;;;12.50;53.63
44138;BME280;29800;55.942;37.314;2022-09-09T06:17:01;100443.72;;;12.51;53.16
44138;BME280;29800;55.942;37.314;2022-09-09T06:19:29;100449.78;;;12.53;53.39
44138;BME280;29800;55.942;37.314;2022-09-09T06:21:58;100454.72;;;12.51;53.42
44138;BME280;29800;55.942;37.314;2022-09-09T06:24:26;100454.19;;;12.54;53.34
44138;BME280;29800;55.942;37.314;2022-09-09T06:26:52;100458.19;;;12.46;53.12
44138;BME280;29800;55.942;37.314;2022-09-09T06:29:23;100455.34;;;12.29;54.36
44138;BME280;29800;55.942;37.314;2022-09-09T06:31:50;100452.72;;;12.35;53.55
44138;BME280;29800;55.942;37.314;2022-09-09T06:34:20;100459.63;;;12.37;55.47
44138;BME280;29800;55.942;37.314;2022-09-09T06:36:50;100460.84;;;12.29;54.33
44138;BME280;29800;55.942;37.314;2022-09-09T06:39:17;100457.03;;;12.30;53.57
44138;BME280;29800;55.942;37.314;2022-09-09T06:41:44;100454.28;;;12.30;52.96
44138;BME280;29800;55.942;37.314;2022-09-09T06:44:33;100455.47;;;12.35;52.92
44138;BME280;29800;55.942;37.314;2022-09-09T06:47:00;100457.97;;;12.36;53.08
44138;BME280;29800;55.942;37.314;2022-09-09T06:49:26;100459.28;;;12.34;54.03
44138;BME280;29800;55.942;37.314;2022-09-09T06:51:52;100471.91;;;12.46;54.13
44138;BME280;29800;55.942;37.314;2022-09-09T06:54:20;100471.22;;;12.68;55.15
44138;BME280;29800;55.942;37.314;2022-09-09T06:56:47;100470.97;;;12.69;52.59
44138;BME280;29800;55.942;37.314;2022-09-09T06:59:20;100474.91;;;12.91;57.26
44138;BME280;29800;55.942;37.314;2022-09-09T07:01:47;100476.19;;;13.17;55.36
44138;BME280;29800;55.942;37.314;2022-09-09T07:04:15;100475.41;;;13.21;52.55
44138;BME280;29800;55.942;37.314;2022-09-09T07:06:44;100472.41;;;13.23;50.80
44138;BME280;29800;55.942;37.314;2022-09-09T07:09:16;100472.72;;;13.38;55.11
44138;BME280;29800;55.942;37.314;2022-09-09T07:11:47;100468.75;;;13.68;56.42
44138;BME280;29800;55.942;37.314;2022-09-09T07:14:15;100479.53;;;13.92;51.30
44138;BME280;29800;55.942;37.314;2022-09-09T07:16:46;100475.44;;;14.16;52.80
44138;BME280;29800;55.942;37.314;2022-09-09T07:19:14;100475.75;;;13.98;48.72
44138;BME280;29800;55.942;37.314;2022-09-09T07:21:42;100467.38;;;13.88;47.57
44138;BME280;29800;55.942;37.314;2022-09-09T07:24:11;100468.00;;;13.73;48.42
44138;BME280;29800;55.942;37.314;2022-09-09T07:26:40;100477.50;;;13.65;48.54
44138;BME280;29800;55.942;37.314;2022-09-09T07:29:07;100484.44;;;13.51;47.44
44138;BME280;29800;55.942;37.314;2022-09-09T07:31:36;100485.78;;;13.48;48.19
44138;BME280;29800;55.942;37.314;2022-09-09T07:34:05;100494.66;;;13.72;48.24
44138;BME280;29800;55.942;37.314;2022-09-09T07:36:34;100495.25;;;13.74;47.90
44138;BME280;29800;55.942;37.314;2022-09-09T07:39:05;100493.16;;;13.82;46.24
44138;BME280;29800;55.942;37.314;2022-09-09T07:41:35;100497.09;;;13.69;46.03
44138;BME280;29800;55.942;37.314;2022-09-09T07:44:08;100498.25;;;13.56;47.17
44138;BME280;29800;55.942;37.314;2022-09-09T07:46:36;100507.75;;;13.65;47.25
44138;BME280;29800;55.942;37.314;2022-09-09T07:49:02;100507.69;;;13.60;49.15
44138;BME280;29800;55.942;37.314;2022-09-09T07:51:39;100507.78;;;13.48;47.34
44138;BME280;29800;55.942;37.314;2022-09-09T07:54:09;100513.16;;;13.26;47.97
44138;BME280;29800;55.942;37.314;2022-09-09T07:56:40;100511.16;;;13.04;47.80
44138;BME280;29800;55.942;37.314;2022-09-09T07:59:07;100514.78;;;12.93;47.61
44138;BME280;29800;55.942;37.314;2022-09-09T08:01:41;100521.88;;;12.89;48.06
44138;BME280;29800;55.942;37.314;2022-09-09T08:04:13;100523.81;;;12.77;47.97
44138;BME280;29800;55.942;37.314;2022-09-09T08:06:46;100527.06;;;12.74;49.36
44138;BME280;29800;55.942;37.314;2022-09-09T08:09:15;100519.47;;;13.38;48.21
44138;BME280;29800;55.942;37.314;2022-09-09T08:11:42;100502.84;;;14.06;46.79
44138;BME280;29800;55.942;37.314;2022-09-09T08:14:09;100502.53;;;14.69;45.79
44138;BME280;29800;55.942;37.314;2022-09-09T08:16:42;100507.00;;;15.02;44.91
44138;BME280;29800;55.942;37.314;2022-09-09T08:19:10;100506.31;;;14.90;44.46
44138;BME280;29800;55.942;37.314;2022-09-09T08:21:39;100505.28;;;14.69;45.06
44138;BME280;29800;55.942;37.314;2022-09-09T08:24:07;100514.06;;;14.44;45.98
44138;BME280;29800;55.942;37.314;2022-09-09T08:26:37;100512.41;;;14.21;44.81
44138;BME280;29800;55.942;37.314;2022-09-09T08:29:06;100511.16;;;14.11;45.39
44138;BME280;29800;55.942;37.314;2022-09-09T08:31:38;100504.47;;;14.46;45.24
44138;BME280;29800;55.942;37.314;2022-09-09T08:34:06;100512.66;;;15.18;44.86
44138;BME280;29800;55.942;37.314;2022-09-09T08:36:36;100512.22;;;15.69;42.39
44138;BME280;29800;55.942;37.314;2022-09-09T08:39:04;100505.94;;;16.26;40.42
44138;BME280;29800;55.942;37.314;2022-09-09T08:44:13;100511.72;;;17.03;39.25
44138;BME280;29800;55.942;37.314;2022-09-09T08:51:39;100515.09;;;16.32;39.13
44138;BME280;29800;55.942;37.314;2022-09-09T08:54:05;100516.50;;;15.87;39.30
44138;BME280;29800;55.942;37.314;2022-09-09T08:56:33;100512.75;;;15.66;39.38
44138;BME280;29800;55.942;37.314;2022-09-09T08:59:02;100507.56;;;16.12;39.67
44138;BME280;29800;55.942;37.314;2022-09-09T09:01:54;100511.59;;;16.57;38.20
44138;BME280;29800;55.942;37.314;2022-09-09T09:07:09;100524.84;;;16.45;39.36
44138;BME280;29800;55.942;37.314;2022-09-09T09:10:00;100514.41;;;16.04;41.19
44138;BME280;29800;55.942;37.314;2022-09-09T09:12:41;100524.88;;;15.59;41.20
44138;BME280;29800;55.942;37.314;2022-09-09T09:15:18;100532.63;;;15.30;42.84
44138;BME280;29800;55.942;37.314;2022-09-09T09:17:46;100530.66;;;14.98;42.56
44138;BME280;29800;55.942;37.314;2022-09-09T09:20:18;100524.75;;;14.84;42.66
44138;BME280;29800;55.942;37.314;2022-09-09T09:22:52;100521.28;;;14.72;43.79
44138;BME280;29800;55.942;37.314;2022-09-09T09:25:22;100522.78;;;14.58;43.93
44138;BME280;29800;55.942;37.314;2022-09-09T09:28:00;100524.94;;;14.56;42.95
44138;BME280;29800;55.942;37.314;2022-09-09T09:30:44;100522.56;;;14.42;43.52
44138;BME280;29800;55.942;37.314;2022-09-09T09:36:46;100513.03;;;14.72;42.59
44138;BME280;29800;55.942;37.314;2022-09-09T09:39:32;100535.00;;;14.67;43.94
44138;BME280;29800;55.942;37.314;2022-09-09T09:42:12;100530.03;;;14.64;44.67
44138;BME280;29800;55.942;37.314;2022-09-09T09:44:41;100528.19;;;14.52;43.54
44138;BME280;29800;55.942;37.314;2022-09-09T09:47:20;100530.19;;;14.57;49.34
44138;BME280;29800;55.942;37.314;2022-09-09T09:49:56;100531.91;;;14.41;44.77
44138;BME280;29800;55.942;37.314;2022-09-09T09:52:27;100535.66;;;14.30;45.38
44138;BME280;29800;55.942;37.314;2022-09-09T09:54:56;100533.34;;;14.22;45.36
44138;BME280;29800;55.942;37.314;2022-09-09T09:57:26;100532.09;;;14.12;44.89
44138;BME280;29800;55.942;37.314;2022-09-09T10:00:14;100534.03;;;14.12;44.40
44138;BME280;29800;55.942;37.314;2022-09-09T10:02:43;100535.22;;;13.99;44.16
44138;BME280;29800;55.942;37.314;2022-09-09T10:05:36;100529.03;;;14.09;44.27
44138;BME280;29800;55.942;37.314;2022-09-09T10:08:14;100531.91;;;13.97;43.58
44138;BME280;29800;55.942;37.314;2022-09-09T10:11:35;100543.63;;;14.09;44.31
44138;BME280;29800;55.942;37.314;2022-09-09T10:13:47;100535.66;;;14.30;43.72
44138;BME280;29800;55.942;37.314;2022-09-09T10:16:35;100535.84;;;14.45;44.02
44138;BME280;29800;55.942;37.314;2022-09-09T10:19:16;100529.38;;;14.57;44.23
44138;BME280;29800;55.942;37.314;2022-09-09T10:27:22;100523.16;;;14.66;43.52
44138;BME280;29800;55.942;37.314;2022-09-09T10:32:59;100530.50;;;15.10;43.14
44138;BME280;29800;55.942;37.314;2022-09-09T10:35:54;100541.59;;;15.15;43.03
44138;BME280;29800;55.942;37.314;2022-09-09T10:38:36;100535.75;;;15.12;42.79
44138;BME280;29800;55.942;37.314;2022-09-09T10:41:46;100540.59;;;15.27;43.12
44138;BME280;29800;55.942;37.314;2022-09-09T10:44:25;100542.22;;;15.22;41.46
44138;BME280;29800;55.942;37.314;2022-09-09T10:47:15;100544.22;;;15.32;42.44
44138;BME280;29800;55.942;37.314;2022-09-09T10:55:20;100541.16;;;15.29;41.92
44138;BME280;29800;55.942;37.314;2022-09-09T10:57:54;100543.63;;;15.25;41.46
44138;BME280;29800;55.942;37.314;2022-09-09T11:00:40;100544.28;;;15.10;41.78
44138;BME280;29800;55.942;37.314;2022-09-09T11:03:18;100542.00;;;15.29;40.88
44138;BME280;29800;55.942;37.314;2022-09-09T11:08:23;100530.03;;;16.41;38.39
44138;BME280;29800;55.942;37.314;2022-09-09T11:11:03;100530.75;;;16.84;36.59
44138;BME280;29800;55.942;37.314;2022-09-09T11:16:25;100516.66;;;18.09;36.29
44138;BME280;29800;55.942;37.314;2022-09-09T11:21:48;100509.66;;;18.92;33.40
44138;BME280;29800;55.942;37.314;2022-09-09T11:24:44;100518.97;;;19.12;34.39
44138;BME280;29800;55.942;37.314;2022-09-09T11:27:20;100516.16;;;19.17;33.53
44138;BME280;29800;55.942;37.314;2022-09-09T11:30:13;100523.09;;;19.15;33.47
44138;BME280;29800;55.942;37.314;2022-09-09T11:35:46;100509.50;;;19.13;33.81
44138;BME280;29800;55.942;37.314;2022-09-09T11:38:26;100522.19;;;19.24;34.00
44138;BME280;29800;55.942;37.314;2022-09-09T11:41:02;100513.34;;;19.22;33.60
44138;BME280;29800;55.942;37.314;2022-09-09T11:43:31;100512.50;;;19.22;33.43
44138;BME280;29800;55.942;37.314;2022-09-09T11:46:01;100509.50;;;19.13;34.47
44138;BME280;29800;55.942;37.314;2022-09-09T11:48:32;100508.00;;;18.91;33.09
44138;BME280;29800;55.942;37.314;2022-09-09T11:53:55;100504.09;;;18.37;32.55
44138;BME280;29800;55.942;37.314;2022-09-09T11:56:30;100512.78;;;18.15;34.04
44138;BME280;29800;55.942;37.314;2022-09-09T11:59:03;100520.03;;;17.75;34.50
44138;BME280;29800;55.942;37.314;2022-09-09T12:04:12;100518.69;;;17.37;36.08
44138;BME280;29800;55.942;37.314;2022-09-09T12:06:45;100512.59;;;17.14;35.92
44138;BME280;29800;55.942;37.314;2022-09-09T12:12:29;100522.75;;;16.83;37.14
44138;BME280;29800;55.942;37.314;2022-09-09T12:15:01;100520.72;;;16.58;36.85
44138;BME280;29800;55.942;37.314;2022-09-09T12:17:31;100512.34;;;16.32;37.80
44138;BME280;29800;55.942;37.314;2022-09-09T12:20:38;100524.19;;;16.22;38.14
44138;BME280;29800;55.942;37.314;2022-09-09T12:28:21;100523.19;;;15.58;39.06
44138;BME280;29800;55.942;37.314;2022-09-09T12:31:12;100522.59;;;15.51;38.95
44138;BME280;29800;55.942;37.314;2022-09-09T12:33:49;100521.66;;;15.73;39.09
44138;BME280;29800;55.942;37.314;2022-09-09T12:36:29;100517.16;;;15.99;38.97
44138;BME280;29800;55.942;37.314;2022-09-09T12:39:17;100513.41;;;16.26;38.38
44138;BME280;29800;55.942;37.314;2022-09-09T12:41:52;100509.34;;;16.39;38.98
44138;BME280;29800;55.942;37.314;2022-09-09T12:44:28;100507.72;;;16.48;37.48
44138;BME280;29800;55.942;37.314;2022-09-09T12:47:02;100514.63;;;16.56;36.83
44138;BME280;29800;55.942;37.314;2022-09-09T12:49:33;100508.53;;;16.43;37.32
44138;BME280;29800;55.942;37.314;2022-09-09T12:52:14;100511.56;;;16.47;37.08
44138;BME280;29800;55.942;37.314;2022-09-09T12:54:52;100512.63;;;16.30;36.21
44138;BME280;29800;55.942;37.314;2022-09-09T12:57:21;100510.97;;;16.40;37.18
44138;BME280;29800;55.942;37.314;2022-09-09T12:59:50;100516.75;;;16.33;37.12
44138;BME280;29800;55.942;37.314;2022-09-09T13:02:26;100510.41;;;16.32;37.32
44138;BME280;29800;55.942;37.314;2022-09-09T13:05:08;100515.06;;;16.22;37.10
44138;BME280;29800;55.942;37.314;2022-09-09T13:07:48;100524.63;;;16.04;38.75
44138;BME280;29800;55.942;37.314;2022-09-09T13:10:28;100526.19;;;15.84;37.96
44138;BME280;29800;55.942;37.314;2022-09-09T13:12:56;100518.53;;;15.64;38.87
44138;BME280;29800;55.942;37.314;2022-09-09T13:15:28;100513.38;;;15.73;38.41
44138;BME280;29800;55.942;37.314;2022-09-09T13:18:06;100507.47;;;15.96;38.36
44138;BME280;29800;55.942;37.314;2022-09-09T13:20:36;100500.97;;;16.23;38.14
44138;BME280;29800;55.942;37.314;2022-09-09T13:23:03;100507.94;;;16.41;38.19
44138;BME280;29800;55.942;37.314;2022-09-09T13:25:29;100505.00;;;16.63;37.83
44138;BME280;29800;55.942;37.314;2022-09-09T13:28:03;100513.56;;;16.67;36.92
44138;BME280;29800;55.942;37.314;2022-09-09T13:30:38;100520.41;;;16.49;37.26
44138;BME280;29800;55.942;37.314;2022-09-09T13:35:53;100517.94;;;15.89;37.46
44138;BME280;29800;55.942;37.314;2022-09-09T13:38:28;100516.88;;;15.63;38.73
44138;BME280;29800;55.942;37.314;2022-09-09T13:41:05;100517.91;;;15.52;38.28
44138;BME280;29800;55.942;37.314;2022-09-09T13:43:46;100513.84;;;15.59;37.72
44138;BME280;29800;55.942;37.314;2022-09-09T13:46:35;100513.88;;;15.65;38.25
44138;BME280;29800;55.942;37.314;2022-09-09T13:51:45;100499.94;;;15.82;38.27
44138;BME280;29800;55.942;37.314;2022-09-09T13:54:14;100490.06;;;15.96;38.59
44138;BME280;29800;55.942;37.314;2022-09-09T13:56:41;100497.56;;;16.01;36.97
44138;BME280;29800;55.942;37.314;2022-09-09T13:59:16;100499.88;;;16.24;38.79
44138;BME280;29800;55.942;37.314;2022-09-09T14:01:47;100491.06;;;16.27;37.63
44138;BME280;29800;55.942;37.314;2022-09-09T14:04:21;100501.28;;;16.32;36.67
44138;BME280;29800;55.942;37.314;2022-09-09T14:06:53;100501.03;;;16.33;36.49
44138;BME280;29800;55.942;37.314;2022-09-09T14:09:21;100496.31;;;16.29;35.57
44138;BME280;29800;55.942;37.314;2022-09-09T14:11:50;100496.25;;;16.13;35.89
44138;BME280;29800;55.942;37.314;2022-09-09T14:14:17;100498.06;;;15.92;36.44
44138;BME280;29800;55.942;37.314;2022-09-09T14:16:44;100496.72;;;15.62;36.47
44138;BME280;29800;55.942;37.314;2022-09-09T14:19:10;100508.16;;;15.39;36.81
44138;BME280;29800;55.942;37.314;2022-09-09T14:21:36;100512.34;;;15.14;38.02
44138;BME280;29800;55.942;37.314;2022-09-09T14:24:05;100506.63;;;14.94;41.71
44138;BME280;29800;55.942;37.314;2022-09-09T14:26:32;100506.44;;;14.73;41.76
44138;BME280;29800;55.942;37.314;2022-09-09T14:29:03;100508.34;;;14.50;40.15
44138;BME280;29800;55.942;37.314;2022-09-09T14:31:30;100507.56;;;14.33;42.12
44138;BME280;29800;55.942;37.314;2022-09-09T14:34:02;100515.97;;;14.21;43.33
44138;BME280;29800;55.942;37.314;2022-09-09T14:36:34;100510.53;;;14.04;42.60
44138;BME280;29800;55.942;37.314;2022-09-09T14:39:04;100515.84;;;13.89;44.06
44138;BME280;29800;55.942;37.314;2022-09-09T14:41:33;100520.09;;;13.79;42.83